createdAt,value
2019-01-31T00:02:52.178Z,5.36
2019-01-31T00:05:28.013Z,5.54
2019-01-31T00:08:21.095Z,5.48
2019-01-31T00:11:42.618Z,5.30
2019-01-31T00:14:22.077Z,5.38
2019-01-31T00:17:03.556Z,5.65
2019-01-31T00:19:38.250Z,5.86
2019-01-31T00:22:52.740Z,5.88
2019-01-31T00:25:50.513Z,5.57
2019-01-31T00:29:14.503Z,5.37
2019-01-31T00:32:02.250Z,5.08
2019-01-31T00:35:14.412Z,4.78
2019-01-31T00:37:54.521Z,4.78
2019-01-31T00:41:09.846Z,4.71
2019-01-31T00:44:46.328Z,4.65
2019-01-31T00:47:51.075Z,4.52
2019-01-31T00:50:49.899Z,4.49
2019-01-31T00:53:33.986Z,4.44
2019-01-31T00:56:43.046Z,4.41
2019-01-31T00:59:53.811Z,4.39
2019-01-31T01:03:02.028Z,4.42
2019-01-31T01:06:07.590Z,4.54
2019-01-31T01:08:42.615Z,4.69
2019-01-31T01:11:45.528Z,4.59
2019-01-31T01:14:40.582Z,4.56
2019-01-31T01:17:38.011Z,4.51
2019-01-31T01:20:56.221Z,4.49
2019-01-31T01:23:33.585Z,4.43
2019-01-31T01:26:29.851Z,4.43
2019-01-31T01:29:24.737Z,4.42
2019-01-31T01:32:54.844Z,4.40
2019-01-31T01:35:37.137Z,4.36
2019-01-31T01:38:32.904Z,4.31
2019-01-31T01:41:40.658Z,4.49
2019-01-31T01:44:51.789Z,4.62
2019-01-31T01:47:32.834Z,4.69
2019-01-31T01:50:38.159Z,4.65
2019-01-31T01:53:53.143Z,4.68
2019-01-31T01:56:54.694Z,4.71
2019-01-31T01:59:51.075Z,4.79
2019-01-31T02:02:48.222Z,4.74
2019-01-31T02:05:47.465Z,4.80
2019-01-31T02:09:14.710Z,4.62
2019-01-31T02:11:55.367Z,4.56
2019-01-31T02:15:05.611Z,4.45
2019-01-31T02:18:01.376Z,4.31
2019-01-31T02:20:47.753Z,4.23
2019-01-31T02:23:59.874Z,4.23
2019-01-31T02:27:00.067Z,4.11
2019-01-31T02:29:37.895Z,4.01
2019-01-31T02:32:48.909Z,4.15
2019-01-31T02:35:58.162Z,4.25
2019-01-31T02:38:56.764Z,4.19
2019-01-31T02:42:03.418Z,4.07
2019-01-31T02:44:53.630Z,4.14
2019-01-31T02:47:52.303Z,4.23
2019-01-31T02:51:00.624Z,4.16
2019-01-31T02:53:41.791Z,4.41
2019-01-31T02:56:36.438Z,4.51
2019-01-31T02:59:33.033Z,4.84
2019-01-31T03:02:39.313Z,4.60
2019-01-31T03:05:28.859Z,4.47
2019-01-31T03:08:49.729Z,4.35
2019-01-31T03:11:57.424Z,4.23
2019-01-31T03:14:46.516Z,4.53
2019-01-31T03:18:03.504Z,4.83
2019-01-31T03:20:54.283Z,4.98
2019-01-31T03:23:54.785Z,5.05
2019-01-31T03:26:51.190Z,4.83
2019-01-31T03:30:06.971Z,4.74
2019-01-31T03:32:49.976Z,4.48
2019-01-31T03:35:33.706Z,4.21
2019-01-31T03:38:22.825Z,4.34
2019-01-31T03:41:49.984Z,4.52
2019-01-31T03:44:49.477Z,4.52
2019-01-31T03:47:54.207Z,4.83
2019-01-31T03:50:43.352Z,5.02
2019-01-31T03:53:48.491Z,5.04
2019-01-31T03:56:41.447Z,4.96
2019-01-31T03:59:31.428Z,4.63
2019-01-31T04:02:52.819Z,4.53
2019-01-31T04:05:43.030Z,4.76
2019-01-31T04:08:10.536Z,4.63
2019-01-31T04:10:37.995Z,4.40
2019-01-31T04:13:05.424Z,4.42
2019-01-31T04:15:32.966Z,4.48
2019-01-31T04:18:00.476Z,4.44
2019-01-31T04:20:27.951Z,4.30
2019-01-31T04:22:55.349Z,4.12
2019-01-31T04:25:22.870Z,3.82
2019-01-31T04:27:50.299Z,3.72
2019-01-31T04:30:17.984Z,3.65
2019-01-31T04:32:45.652Z,3.59
2019-01-31T04:35:13.366Z,3.42
2019-01-31T04:37:40.781Z,3.51
2019-01-31T04:40:08.667Z,3.63
2019-01-31T04:42:36.276Z,3.70
2019-01-31T04:45:04.865Z,3.82
2019-01-31T04:47:32.307Z,3.98
2019-01-31T04:49:59.783Z,3.96
2019-01-31T04:52:27.337Z,3.85
2019-01-31T04:54:54.796Z,3.80
2019-01-31T04:57:22.260Z,3.59
2019-01-31T04:59:49.641Z,3.55
2019-01-31T05:02:17.177Z,3.64
2019-01-31T05:04:44.807Z,3.69
2019-01-31T05:07:12.194Z,3.61
2019-01-31T05:09:39.647Z,3.46
2019-01-31T05:12:07.072Z,3.59
2019-01-31T05:14:34.483Z,3.54
2019-01-31T05:17:02.002Z,3.86
2019-01-31T05:19:29.477Z,4.00
2019-01-31T05:21:56.927Z,3.88
2019-01-31T05:24:24.388Z,3.90
2019-01-31T05:26:51.927Z,4.11
2019-01-31T05:29:19.350Z,3.75
2019-01-31T05:31:46.805Z,3.84
2019-01-31T05:34:14.341Z,3.75
2019-01-31T05:36:41.899Z,4.02
2019-01-31T05:39:09.389Z,4.12
2019-01-31T05:41:36.762Z,3.90
2019-01-31T05:44:04.455Z,3.77
2019-01-31T05:46:31.868Z,3.92
2019-01-31T05:48:59.242Z,4.15
2019-01-31T05:51:26.712Z,4.41
2019-01-31T05:53:54.168Z,4.39
2019-01-31T05:56:21.647Z,4.01
2019-01-31T05:58:49.038Z,3.97
2019-01-31T06:01:16.754Z,4.08
2019-01-31T06:03:44.917Z,4.26
2019-01-31T06:06:12.437Z,4.56
2019-01-31T06:08:39.791Z,4.75
2019-01-31T06:11:08.056Z,5.12
2019-01-31T06:13:35.900Z,5.36
2019-01-31T06:16:06.784Z,5.38
2019-01-31T06:18:34.011Z,5.44
2019-01-31T06:21:01.456Z,5.43
2019-01-31T06:23:28.978Z,5.18
2019-01-31T06:25:56.457Z,4.97
2019-01-31T06:28:24.021Z,4.73
2019-01-31T06:30:51.628Z,4.63
2019-01-31T06:33:19.164Z,4.60
2019-01-31T06:35:46.555Z,4.49
2019-01-31T06:38:14.183Z,4.55
2019-01-31T06:40:41.729Z,4.62
2019-01-31T06:43:12.088Z,4.49
2019-01-31T06:45:39.403Z,4.71
2019-01-31T06:48:06.962Z,4.55
2019-01-31T06:50:34.449Z,4.38
2019-01-31T06:53:01.939Z,4.71
2019-01-31T06:55:29.590Z,5.02
2019-01-31T06:57:57.049Z,5.02
2019-01-31T07:00:24.529Z,5.15
2019-01-31T07:02:52.378Z,5.30
2019-01-31T07:05:19.859Z,5.36
2019-01-31T07:07:47.365Z,5.50
2019-01-31T07:10:17.708Z,5.40
2019-01-31T07:12:45.107Z,5.28
2019-01-31T07:15:12.956Z,4.88
2019-01-31T07:17:40.577Z,4.96
2019-01-31T07:20:10.229Z,4.98
2019-01-31T07:22:37.634Z,4.86
2019-01-31T07:25:05.628Z,4.78
2019-01-31T07:27:33.121Z,5.05
2019-01-31T07:30:00.601Z,5.21
2019-01-31T07:32:28.229Z,5.12
2019-01-31T07:34:55.608Z,5.21
2019-01-31T07:37:23.098Z,5.34
2019-01-31T07:39:50.753Z,5.48
2019-01-31T07:42:18.206Z,5.36
2019-01-31T07:44:45.680Z,5.41
2019-01-31T07:47:13.145Z,5.50
2019-01-31T07:49:40.733Z,5.54
2019-01-31T07:52:08.118Z,5.50
2019-01-31T07:54:35.544Z,5.63
2019-01-31T07:57:03.517Z,5.87
2019-01-31T07:59:38.686Z,5.88
2019-01-31T08:02:09.545Z,5.80
2019-01-31T08:04:43.381Z,5.59
2019-01-31T08:07:12.721Z,5.55
2019-01-31T08:09:46.620Z,5.69
2019-01-31T08:12:21.879Z,5.72
2019-01-31T08:14:49.359Z,5.71
2019-01-31T08:17:16.834Z,5.71
2019-01-31T08:19:44.285Z,5.74
2019-01-31T08:22:11.748Z,5.79
2019-01-31T08:24:39.229Z,6.05
2019-01-31T08:27:06.586Z,6.23
2019-01-31T08:29:34.059Z,6.48
2019-01-31T08:32:01.679Z,6.47
2019-01-31T08:34:29.095Z,6.28
2019-01-31T08:36:56.698Z,6.31
2019-01-31T08:39:24.485Z,6.23
2019-01-31T08:42:03.224Z,6.56
2019-01-31T08:44:22.021Z,6.57
2019-01-31T08:46:49.481Z,6.50
2019-01-31T08:49:17.368Z,6.46
2019-01-31T08:51:44.896Z,6.42
2019-01-31T08:54:12.453Z,6.72
2019-01-31T08:56:40.781Z,6.67
2019-01-31T08:59:09.061Z,6.84
2019-01-31T09:01:36.508Z,7.05
2019-01-31T09:04:04.156Z,7.15
2019-01-31T09:06:31.635Z,7.29
2019-01-31T09:08:59.098Z,7.23
2019-01-31T09:11:26.977Z,7.14
2019-01-31T09:13:54.533Z,7.01
2019-01-31T09:16:22.324Z,6.86
2019-01-31T09:18:49.974Z,6.68
2019-01-31T09:21:34.887Z,6.58
2019-01-31T09:24:29.302Z,6.56
2019-01-31T09:27:26.668Z,6.46
2019-01-31T09:30:44.633Z,6.47
2019-01-31T09:33:47.593Z,6.42
2019-01-31T09:36:36.579Z,6.34
2019-01-31T09:39:48.759Z,6.46
2019-01-31T09:42:48.026Z,6.64
2019-01-31T09:45:36.756Z,6.70
2019-01-31T09:48:41.557Z,6.77
2019-01-31T09:51:47.910Z,6.59
2019-01-31T09:54:36.655Z,6.68
2019-01-31T09:57:53.295Z,6.75
2019-01-31T10:01:17.777Z,7.07
2019-01-31T10:04:22.625Z,7.38
2019-01-31T10:07:17.862Z,7.56
2019-01-31T10:10:18.815Z,7.76
2019-01-31T10:13:29.576Z,7.56
2019-01-31T10:16:09.376Z,7.90
2019-01-31T10:19:15.619Z,7.98
2019-01-31T10:22:18.857Z,7.88
2019-01-31T10:25:19.854Z,7.58
2019-01-31T10:28:24.601Z,7.42
2019-01-31T10:31:46.656Z,7.63
2019-01-31T10:34:44.165Z,7.72
2019-01-31T10:37:44.430Z,7.88
2019-01-31T10:40:29.954Z,7.84
2019-01-31T10:43:20.500Z,7.87
2019-01-31T10:46:32.703Z,7.87
2019-01-31T10:49:37.608Z,7.82
2019-01-31T10:52:34.210Z,8.04
2019-01-31T10:55:44.565Z,8.17
2019-01-31T10:58:48.343Z,8.48
2019-01-31T11:02:00.065Z,8.65
2019-01-31T11:05:30.121Z,8.40
2019-01-31T11:08:23.428Z,8.11
2019-01-31T11:11:21.387Z,8.37
2019-01-31T11:14:54.730Z,8.68
2019-01-31T11:17:56.821Z,9.14
2019-01-31T11:21:23.863Z,9.50
2019-01-31T11:24:05.173Z,9.59
2019-01-31T11:27:12.854Z,9.36
2019-01-31T11:30:07.383Z,9.14
2019-01-31T11:33:21.473Z,8.71
2019-01-31T11:36:33.322Z,8.36
2019-01-31T11:39:41.283Z,8.12
2019-01-31T11:42:40.095Z,7.91
2019-01-31T11:45:31.022Z,7.89
2019-01-31T11:48:54.322Z,7.92
2019-01-31T11:52:00.135Z,7.94
2019-01-31T11:55:10.923Z,7.92
2019-01-31T11:58:09.610Z,7.84
2019-01-31T12:00:37.725Z,7.97
2019-01-31T12:03:05.298Z,8.15
2019-01-31T12:05:33.169Z,8.21
2019-01-31T12:08:00.761Z,8.23
2019-01-31T12:10:28.344Z,8.24
2019-01-31T12:12:56.035Z,8.26
2019-01-31T12:15:23.519Z,8.06
2019-01-31T12:17:51.068Z,8.13
2019-01-31T12:20:18.813Z,8.05
2019-01-31T12:22:46.479Z,7.99
2019-01-31T12:25:14.209Z,7.95
2019-01-31T12:27:41.973Z,7.85
2019-01-31T12:30:14.621Z,7.79
2019-01-31T12:32:42.197Z,7.96
2019-01-31T12:35:09.841Z,8.20
2019-01-31T12:37:37.310Z,8.40
2019-01-31T12:40:08.370Z,8.55
2019-01-31T12:42:36.154Z,8.66
2019-01-31T12:45:04.328Z,8.83
2019-01-31T12:47:31.761Z,8.97
2019-01-31T12:49:59.289Z,8.96
2019-01-31T12:52:27.125Z,8.96
2019-01-31T12:54:54.599Z,9.00
2019-01-31T12:57:22.187Z,9.13
2019-01-31T12:59:49.635Z,9.00
2019-01-31T13:02:17.255Z,8.99
2019-01-31T13:04:44.819Z,8.95
2019-01-31T13:07:13.228Z,8.98
2019-01-31T13:09:40.688Z,9.10
2019-01-31T13:12:08.542Z,9.04
2019-01-31T13:14:36.023Z,8.91
2019-01-31T13:17:05.917Z,8.70
2019-01-31T13:19:33.804Z,8.63
2019-01-31T13:22:01.259Z,8.56
2019-01-31T13:24:28.837Z,8.55
2019-01-31T13:26:56.457Z,8.52
2019-01-31T13:29:24.051Z,8.54
2019-01-31T13:31:51.550Z,8.46
2019-01-31T13:34:19.009Z,8.35
2019-01-31T13:36:46.431Z,8.43
2019-01-31T13:39:15.370Z,8.39
2019-01-31T13:41:42.840Z,8.37
2019-01-31T13:44:10.215Z,8.38
2019-01-31T13:46:37.705Z,8.28
2019-01-31T13:49:05.415Z,8.15
2019-01-31T13:51:33.014Z,8.02
2019-01-31T13:54:00.632Z,7.98
2019-01-31T13:56:28.077Z,7.85
2019-01-31T13:58:55.506Z,7.92
2019-01-31T14:01:24.017Z,7.89
2019-01-31T14:03:51.584Z,7.85
2019-01-31T14:06:19.101Z,7.81
2019-01-31T14:08:46.518Z,7.80
2019-01-31T14:11:13.973Z,7.75
2019-01-31T14:13:41.456Z,7.77
2019-01-31T14:16:08.927Z,7.75
2019-01-31T14:18:36.506Z,7.74
2019-01-31T14:21:04.197Z,7.80
2019-01-31T14:23:31.712Z,7.75
2019-01-31T14:25:59.227Z,7.64
2019-01-31T14:28:26.657Z,7.55
2019-01-31T14:30:54.153Z,7.67
2019-01-31T14:33:25.495Z,7.68
2019-01-31T14:35:53.536Z,7.59
2019-01-31T14:38:21.068Z,7.50
2019-01-31T14:40:48.544Z,7.52
2019-01-31T14:43:16.025Z,7.63
2019-01-31T14:45:43.528Z,7.58
2019-01-31T14:48:10.925Z,7.52
2019-01-31T14:50:38.536Z,7.50
2019-01-31T14:53:06.453Z,7.48
2019-01-31T14:55:33.916Z,7.53
2019-01-31T14:58:01.469Z,7.54
2019-01-31T15:00:30.296Z,7.52
2019-01-31T15:02:57.732Z,7.48
2019-01-31T15:05:25.161Z,7.48
2019-01-31T15:07:52.770Z,7.60
2019-01-31T15:10:22.805Z,7.61
2019-01-31T15:12:50.369Z,7.53
2019-01-31T15:15:18.051Z,7.47
2019-01-31T15:17:45.506Z,7.48
2019-01-31T15:20:16.873Z,7.70
2019-01-31T15:22:45.222Z,7.70
2019-01-31T15:25:12.942Z,7.68
2019-01-31T15:27:40.436Z,7.44
2019-01-31T15:30:10.351Z,7.52
2019-01-31T15:32:37.843Z,7.53
2019-01-31T15:35:06.150Z,7.47
2019-01-31T15:37:33.742Z,6.60
2019-01-31T15:40:01.210Z,6.07
2019-01-31T15:42:28.606Z,5.84
2019-01-31T15:44:56.074Z,5.74
2019-01-31T15:47:23.500Z,5.55
2019-01-31T15:49:51.049Z,5.51
2019-01-31T15:52:18.575Z,5.24
2019-01-31T15:54:46.195Z,5.13
2019-01-31T15:57:16.735Z,5.06
2019-01-31T15:59:43.109Z,5.04
2019-01-31T16:02:10.979Z,4.96
2019-01-31T16:04:38.604Z,4.82
2019-01-31T16:07:06.066Z,4.68
2019-01-31T16:09:33.493Z,4.67
2019-01-31T16:12:01.255Z,4.47
2019-01-31T16:14:28.891Z,4.45
2019-01-31T16:16:56.458Z,4.50
2019-01-31T16:19:23.934Z,4.58
2019-01-31T16:21:51.440Z,4.42
2019-01-31T16:24:18.905Z,4.55
2019-01-31T16:26:46.472Z,4.60
2019-01-31T16:29:13.950Z,4.56
2019-01-31T16:31:41.372Z,4.50
2019-01-31T16:34:08.875Z,4.57
2019-01-31T16:36:36.389Z,4.52
2019-01-31T16:39:07.849Z,4.57
2019-01-31T16:41:35.308Z,4.64
2019-01-31T16:44:03.269Z,4.58
2019-01-31T16:46:30.689Z,4.51
2019-01-31T16:48:58.219Z,4.51
2019-01-31T16:51:25.679Z,4.63
2019-01-31T16:53:53.222Z,4.81
2019-01-31T16:56:20.876Z,4.72
2019-01-31T16:58:48.409Z,4.71
2019-01-31T17:01:16.332Z,4.52
2019-01-31T17:03:43.902Z,4.72
2019-01-31T17:06:12.362Z,4.66
2019-01-31T17:08:39.820Z,4.48
2019-01-31T17:11:07.274Z,4.83
2019-01-31T17:13:34.725Z,4.87
2019-01-31T17:16:02.295Z,4.90
2019-01-31T17:18:29.734Z,4.60
2019-01-31T17:20:57.186Z,4.86
2019-01-31T17:23:24.673Z,4.92
2019-01-31T17:26:01.851Z,4.84
2019-01-31T17:28:45.912Z,4.93
2019-01-31T17:31:13.461Z,4.95
2019-01-31T17:33:45.794Z,4.98
2019-01-31T17:36:13.463Z,5.05
2019-01-31T17:38:40.907Z,4.82
2019-01-31T17:41:08.455Z,4.91
2019-01-31T17:43:35.936Z,4.80
2019-01-31T17:46:03.778Z,4.79
2019-01-31T17:48:31.251Z,4.83
2019-01-31T17:50:58.736Z,4.72
2019-01-31T17:53:26.384Z,4.75
2019-01-31T17:55:53.985Z,4.73
2019-01-31T17:58:21.674Z,4.72
2019-01-31T18:00:57.035Z,4.71
2019-01-31T18:03:25.164Z,4.75
2019-01-31T18:05:53.174Z,4.75
2019-01-31T18:08:20.654Z,4.70
2019-01-31T18:10:48.102Z,4.71
2019-01-31T18:13:15.540Z,4.67
2019-01-31T18:15:43.056Z,4.65
2019-01-31T18:18:10.510Z,4.60
2019-01-31T18:20:37.999Z,4.57
2019-01-31T18:23:05.394Z,4.58
2019-01-31T18:25:33.579Z,4.53
2019-01-31T18:28:08.381Z,4.49
2019-01-31T18:30:36.069Z,4.46
2019-01-31T18:33:05.799Z,4.49
2019-01-31T18:35:33.387Z,4.49
2019-01-31T18:38:02.240Z,4.51
2019-01-31T18:40:30.754Z,4.51
2019-01-31T18:42:58.322Z,4.46
2019-01-31T18:45:28.041Z,4.50
2019-01-31T18:48:02.188Z,4.59
2019-01-31T18:50:34.945Z,4.58
2019-01-31T18:53:02.842Z,4.69
2019-01-31T18:55:30.463Z,4.71
2019-01-31T18:57:58.358Z,4.70
2019-01-31T19:00:31.697Z,4.64
2019-01-31T19:02:59.437Z,4.59
2019-01-31T19:05:26.929Z,4.52
2019-01-31T19:07:54.667Z,4.47
2019-01-31T19:10:23.080Z,4.40
2019-01-31T19:12:51.305Z,4.37
2019-01-31T19:15:19.215Z,4.32
2019-01-31T19:17:46.793Z,4.24
2019-01-31T19:20:17.653Z,4.14
2019-01-31T19:22:45.080Z,4.16
2019-01-31T19:25:12.972Z,4.11
2019-01-31T19:27:40.374Z,4.08
2019-01-31T19:30:13.877Z,3.95
2019-01-31T19:32:41.338Z,3.84
2019-01-31T19:35:08.949Z,3.84
2019-01-31T19:37:36.598Z,3.75
2019-01-31T19:40:05.370Z,3.67
2019-01-31T19:42:32.804Z,3.60
2019-01-31T19:45:00.375Z,3.71
2019-01-31T19:47:27.816Z,3.59
2019-01-31T19:49:55.269Z,3.65
2019-01-31T19:52:22.672Z,3.90
2019-01-31T19:54:50.127Z,3.85
2019-01-31T19:57:17.707Z,3.97
2019-01-31T19:59:45.399Z,4.00
2019-01-31T20:02:15.797Z,4.11
2019-01-31T20:04:42.261Z,4.15
2019-01-31T20:07:09.943Z,4.00
2019-01-31T20:09:37.325Z,4.01
2019-01-31T20:12:05.756Z,3.94
2019-01-31T20:14:33.236Z,4.16
2019-01-31T20:17:00.824Z,4.07
2019-01-31T20:19:28.296Z,4.22
2019-01-31T20:21:55.756Z,4.18
2019-01-31T20:24:23.332Z,4.21
2019-01-31T20:26:50.784Z,4.23
2019-01-31T20:29:18.188Z,4.31
2019-01-31T20:31:46.178Z,4.40
2019-01-31T20:34:13.760Z,4.26
2019-01-31T20:36:41.545Z,4.29
2019-01-31T20:39:09.216Z,4.13
2019-01-31T20:41:37.409Z,4.06
2019-01-31T20:44:05.686Z,4.14
2019-01-31T20:46:40.285Z,4.25
2019-01-31T20:49:03.754Z,4.20
2019-01-31T20:51:32.248Z,4.14
2019-01-31T20:54:00.241Z,4.21
2019-01-31T20:56:27.679Z,4.14
2019-01-31T20:58:55.296Z,4.21
2019-01-31T21:01:22.792Z,4.14
2019-01-31T21:03:50.621Z,4.13
2019-01-31T21:06:18.090Z,4.00
2019-01-31T21:08:45.758Z,3.88
2019-01-31T21:11:13.455Z,3.96
2019-01-31T21:13:41.100Z,4.08
2019-01-31T21:16:08.667Z,4.12
2019-01-31T21:18:36.660Z,4.18
2019-01-31T21:21:05.332Z,4.12
2019-01-31T21:23:32.968Z,3.94
2019-01-31T21:26:00.732Z,3.80
2019-01-31T21:28:28.208Z,3.86
2019-01-31T21:30:55.577Z,3.72
2019-01-31T21:33:23.217Z,3.83
2019-01-31T21:35:51.048Z,3.73
2019-01-31T21:38:18.494Z,3.84
2019-01-31T21:40:45.893Z,3.88
2019-01-31T21:43:13.327Z,3.75
2019-01-31T21:45:40.797Z,3.73
2019-01-31T21:48:09.390Z,3.75
2019-01-31T21:50:36.947Z,3.64
2019-01-31T21:53:04.858Z,3.63
2019-01-31T21:55:32.400Z,3.58
2019-01-31T21:57:59.877Z,3.34
2019-01-31T22:00:29.875Z,3.33
2019-01-31T22:02:57.517Z,3.31
2019-01-31T22:05:25.308Z,3.57
2019-01-31T22:07:52.693Z,3.37
2019-01-31T22:10:20.328Z,3.25
2019-01-31T22:12:48.142Z,3.22
2019-01-31T22:15:23.866Z,3.30
2019-01-31T22:17:51.396Z,3.19
2019-01-31T22:20:19.054Z,3.01
2019-01-31T22:22:46.556Z,2.91
2019-01-31T22:25:15.854Z,3.05
2019-01-31T22:27:43.283Z,3.02
2019-01-31T22:30:25.322Z,2.97
2019-01-31T22:32:52.952Z,2.89
2019-01-31T22:35:20.457Z,2.80
2019-01-31T22:37:47.875Z,2.82
2019-01-31T22:40:15.980Z,2.63
2019-01-31T22:42:43.427Z,2.61
2019-01-31T22:45:13.298Z,2.49
2019-01-31T22:47:40.746Z,2.52
2019-01-31T22:50:10.465Z,2.68
2019-01-31T22:52:37.827Z,2.79
2019-01-31T22:55:06.502Z,2.85
2019-01-31T22:57:33.956Z,3.03
2019-01-31T23:00:01.368Z,2.87
2019-01-31T23:02:28.819Z,2.94
2019-01-31T23:04:56.299Z,3.04
2019-01-31T23:07:23.752Z,2.95
2019-01-31T23:09:51.277Z,2.97
2019-01-31T23:12:18.868Z,3.24
2019-01-31T23:14:46.344Z,3.42
2019-01-31T23:17:13.738Z,3.22
2019-01-31T23:19:41.138Z,3.01
2019-01-31T23:22:08.709Z,2.90
2019-01-31T23:24:36.226Z,2.94
2019-01-31T23:27:03.732Z,2.77
2019-01-31T23:29:31.298Z,2.79
2019-01-31T23:31:58.805Z,2.97
2019-01-31T23:34:26.268Z,2.87
2019-01-31T23:36:53.755Z,2.85
2019-01-31T23:39:21.309Z,3.01
2019-01-31T23:41:48.848Z,2.84
2019-01-31T23:44:16.304Z,2.84
2019-01-31T23:46:43.836Z,2.73
2019-01-31T23:49:11.307Z,2.48
2019-01-31T23:51:38.808Z,2.46
2019-01-31T23:54:06.367Z,2.68
2019-01-31T23:56:33.814Z,2.69
2019-01-31T23:59:01.355Z,2.67
